Time;durP1;ratioP1;P1;durP2;ratioP2;P2;SDS_P1;SDS_P2;PMS_P1;PMS_P2;Temp;Humidity;BMP_temperature;BMP_pressure;BME280_temperature;BME280_humidity;BME280_pressure;Samples;Min_cycle;Max_cycle;Signal;HPM_P1;HPM_P2
2022/09/03 06:19:08;;;;;;;;;8.67;7.67;;;;;;;;6319249;22;46577;-86
2022/09/03 06:21:34;;;;;;;;;8.33;6.67;;;;;;;;6337423;22;45354;-90
2022/09/03 06:23:59;;;;;;;;;7.33;7.33;;;;;;;;6365998;22;45342;-90
2022/09/03 06:26:27;;;;;;;;;10.33;8.33;;;;;;;;6364739;22;45282;-90
2022/09/03 06:28:54;;;;;;;;;5.00;5.00;;;;;;;;6366329;22;45556;-90
2022/09/03 06:31:21;;;;;;;;;9.67;8.00;;;;;;;;6366169;22;45673;-89
2022/09/03 06:33:46;;;;;;;;;7.33;7.33;;;;;;;;6366521;22;45343;-87
2022/09/03 06:36:13;;;;;;;;;12.33;9.33;;;;;;;;6364437;22;46744;-88
2022/09/03 06:38:38;;;;;;;;;7.67;7.00;;;;;;;;6337260;22;45839;-88
2022/09/03 06:41:05;;;;;;;;;11.00;9.33;;;;;;;;6337382;22;45340;-88
2022/09/03 06:43:31;;;;;;;;;9.00;7.67;;;;;;;;6336457;22;45571;-90
2022/09/03 06:45:58;;;;;;;;;6.33;6.33;;;;;;;;6365540;22;45471;-88
2022/09/03 06:48:24;;;;;;;;;9.33;8.33;;;;;;;;6336658;22;45776;-90
2022/09/03 06:50:56;;;;;;;;;9.00;8.00;;;;;;;;6365443;22;45307;-89
2022/09/03 06:53:22;;;;;;;;;8.00;8.00;;;;;;;;6336718;22;45811;-89
2022/09/03 06:55:55;;;;;;;;;8.33;7.33;;;;;;;;6336915;22;46278;-89
2022/09/03 06:58:21;;;;;;;;;8.67;8.00;;;;;;;;6336898;22;45485;-89
2022/09/03 07:00:47;;;;;;;;;6.33;6.33;;;;;;;;6365421;22;45373;-89
2022/09/03 07:03:16;;;;;;;;;6.00;6.00;;;;;;;;6364921;22;45600;-89
2022/09/03 07:05:42;;;;;;;;;8.67;8.67;;;;;;;;6337165;22;47163;-89
2022/09/03 07:08:09;;;;;;;;;10.33;8.33;;;;;;;;6365052;22;45213;-90
2022/09/03 07:10:36;;;;;;;;;5.33;5.33;;;;;;;;6337731;22;45296;-90
2022/09/03 07:13:01;;;;;;;;;8.67;6.33;;;;;;;;6364880;22;45289;-89
2022/09/03 07:15:26;;;;;;;;;7.00;7.00;;;;;;;;6343827;22;46156;-88
2022/09/03 07:17:51;;;;;;;;;4.67;4.00;;;;;;;;6337084;22;45736;-88
2022/09/03 07:20:16;;;;;;;;;6.33;6.00;;;;;;;;6364890;22;45512;-91
2022/09/03 07:22:42;;;;;;;;;7.67;6.33;;;;;;;;6336381;22;45458;-89
2022/09/03 07:25:07;;;;;;;;;8.00;6.33;;;;;;;;6365208;22;45356;-89
2022/09/03 07:27:33;;;;;;;;;8.00;5.67;;;;;;;;6337563;22;45845;-89
2022/09/03 07:29:58;;;;;;;;;8.33;7.00;;;;;;;;6336385;22;45420;-89
2022/09/03 07:32:24;;;;;;;;;8.67;7.67;;;;;;;;6366129;22;45303;-89
2022/09/03 07:34:51;;;;;;;;;8.33;6.00;;;;;;;;6364824;22;46246;-89
2022/09/03 07:37:17;;;;;;;;;10.33;6.67;;;;;;;;6366100;22;45304;-89
2022/09/03 07:39:42;;;;;;;;;6.00;6.00;;;;;;;;6336727;22;45447;-89
2022/09/03 07:42:09;;;;;;;;;6.00;5.67;;;;;;;;6366295;22;45359;-89
2022/09/03 07:44:35;;;;;;;;;8.00;7.00;;;;;;;;6364780;22;46322;-89
2022/09/03 07:47:00;;;;;;;;;7.67;7.00;;;;;;;;6336202;22;45405;-88
2022/09/03 07:49:25;;;;;;;;;5.00;4.00;;;;;;;;6364370;22;45256;-89
2022/09/03 07:51:52;;;;;;;;;5.00;5.00;;;;;;;;6337598;22;45398;-89
2022/09/03 07:54:19;;;;;;;;;4.00;4.00;;;;;;;;6331962;22;47170;-88
2022/09/03 07:56:44;;;;;;;;;7.00;6.33;;;;;;;;6363581;22;45637;-89
2022/09/03 07:59:10;;;;;;;;;7.00;5.67;;;;;;;;6365571;22;45288;-89
2022/09/03 08:01:36;;;;;;;;;5.33;5.33;;;;;;;;6336561;22;45506;-89
2022/09/03 08:04:03;;;;;;;;;8.00;7.67;;;;;;;;6365042;22;45369;-89
2022/09/03 08:06:29;;;;;;;;;7.00;7.00;;;;;;;;6365793;22;45306;-89
2022/09/03 08:08:57;;;;;;;;;5.33;5.33;;;;;;;;6366575;22;45315;-89
2022/09/03 08:11:22;;;;;;;;;7.00;7.00;;;;;;;;6366802;22;45658;-88
2022/09/03 08:13:53;;;;;;;;;8.67;7.00;;;;;;;;6337906;22;47206;-89
2022/09/03 08:16:18;;;;;;;;;5.33;4.00;;;;;;;;6365977;22;45244;-89
2022/09/03 08:18:46;;;;;;;;;7.33;6.00;;;;;;;;6367413;22;45202;-90
2022/09/03 08:21:15;;;;;;;;;6.67;5.00;;;;;;;;6365211;22;45457;-89
2022/09/03 08:23:47;;;;;;;;;6.67;6.67;;;;;;;;6337972;22;47216;-89
2022/09/03 08:26:13;;;;;;;;;5.00;5.00;;;;;;;;6341794;22;45346;-90
2022/09/03 08:28:39;;;;;;;;;6.33;6.33;;;;;;;;6338780;22;45374;-89
2022/09/03 08:31:05;;;;;;;;;7.00;7.00;;;;;;;;6367004;22;45516;-89
2022/09/03 08:33:36;;;;;;;;;6.00;5.67;;;;;;;;6366678;22;45624;-89
2022/09/03 08:36:09;;;;;;;;;9.00;8.00;;;;;;;;6366669;22;45330;-89
2022/09/03 08:38:35;;;;;;;;;7.00;7.00;;;;;;;;6368268;22;45289;-90
2022/09/03 08:41:28;;;;;;;;;4.00;4.00;;;;;;;;6341057;22;45434;-90
2022/09/03 08:44:12;;;;;;;;;4.33;4.33;;;;;;;;6334058;22;47327;-90
2022/09/03 08:46:41;;;;;;;;;5.67;5.00;;;;;;;;6337434;22;45319;-89
2022/09/03 08:49:10;;;;;;;;;3.33;3.33;;;;;;;;6337632;22;45523;-89
2022/09/03 08:51:39;;;;;;;;;4.33;4.33;;;;;;;;6365046;22;45314;-88
2022/09/03 08:54:06;;;;;;;;;7.67;4.00;;;;;;;;6366457;22;45374;-88
2022/09/03 08:56:32;;;;;;;;;4.33;4.33;;;;;;;;6339540;22;46236;-88
2022/09/03 08:58:59;;;;;;;;;3.00;3.00;;;;;;;;6338868;22;45346;-88
2022/09/03 09:01:57;;;;;;;;;6.67;5.67;;;;;;;;6337916;22;45342;-89
2022/09/03 09:04:31;;;;;;;;;3.00;3.00;;;;;;;;6238310;22;48151;-88
2022/09/03 09:07:11;;;;;;;;;3.00;3.00;;;;;;;;6214488;22;45999;-88
2022/09/03 09:09:36;;;;;;;;;4.00;3.00;;;;;;;;6240653;22;45440;-88
2022/09/03 09:12:14;;;;;;;;;3.67;3.67;;;;;;;;6217365;22;45390;-93
2022/09/03 09:14:42;;;;;;;;;5.33;3.67;;;;;;;;6241747;22;45371;-95
2022/09/03 09:17:23;;;;;;;;;4.00;4.00;;;;;;;;6218042;22;45560;-94
2022/09/03 09:20:08;;;;;;;;;4.00;4.00;;;;;;;;6215556;22;45544;-93
2022/09/03 09:22:42;;;;;;;;;5.33;4.00;;;;;;;;6214195;22;45433;-92
2022/09/03 09:25:13;;;;;;;;;4.00;4.00;;;;;;;;6213382;22;47380;-95
2022/09/03 09:27:43;;;;;;;;;3.00;3.00;;;;;;;;6239096;22;45402;-93
2022/09/03 09:30:09;;;;;;;;;4.00;4.00;;;;;;;;6210190;22;45716;-94
2022/09/03 09:32:36;;;;;;;;;4.00;4.00;;;;;;;;6211456;22;45578;-91
2022/09/03 09:35:01;;;;;;;;;5.00;5.00;;;;;;;;6236307;22;45790;-92
2022/09/03 09:37:27;;;;;;;;;2.00;2.00;;;;;;;;6237952;22;45632;-91
2022/09/03 09:39:57;;;;;;;;;2.33;2.33;;;;;;;;6295669;22;45350;-92
2022/09/03 09:42:22;;;;;;;;;4.00;3.00;;;;;;;;6338312;22;45636;-93
2022/09/03 09:44:48;;;;;;;;;4.67;3.67;;;;;;;;6336609;22;47287;-92
2022/09/03 09:47:30;;;;;;;;;4.00;3.00;;;;;;;;6346000;22;45663;-96
2022/09/03 09:50:01;;;;;;;;;4.67;4.67;;;;;;;;6349351;22;45292;-93
2022/09/03 09:52:30;;;;;;;;;4.00;3.00;;;;;;;;6355371;22;45453;-96
2022/09/03 09:55:14;;;;;;;;;2.33;2.33;;;;;;;;6365044;22;47436;-96
2022/09/03 09:57:39;;;;;;;;;2.33;2.33;;;;;;;;6394111;22;45133;-96
2022/09/03 10:00:10;;;;;;;;;4.33;2.00;;;;;;;;6366208;22;44689;-96
2022/09/03 10:02:41;;;;;;;;;3.00;3.00;;;;;;;;6369848;22;44750;-96
2022/09/03 10:05:19;;;;;;;;;3.67;3.67;;;;;;;;6351162;22;47638;-92
2022/09/03 10:07:53;;;;;;;;;3.00;3.00;;;;;;;;6378789;22;45287;-95
2022/09/03 10:10:20;;;;;;;;;3.00;3.00;;;;;;;;6355122;22;45423;-93
2022/09/03 10:12:45;;;;;;;;;2.67;2.67;;;;;;;;6378112;22;45554;-93
2022/09/03 10:15:20;;;;;;;;;1.33;1.33;;;;;;;;6346375;22;46909;-91
2022/09/03 10:17:51;;;;;;;;;2.00;2.00;;;;;;;;6341293;22;45292;-91
2022/09/03 10:20:32;;;;;;;;;6.00;4.33;;;;;;;;6373551;22;45373;-95
2022/09/03 10:23:03;;;;;;;;;3.00;3.00;;;;;;;;6338679;22;45534;-91
2022/09/03 10:25:38;;;;;;;;;25.00;23.33;;;;;;;;6337912;22;47139;-92
2022/09/03 10:28:04;;;;;;;;;22.67;17.00;;;;;;;;6336658;22;45738;-91
2022/09/03 10:30:38;;;;;;;;;18.67;16.67;;;;;;;;6338975;22;45291;-90
2022/09/03 10:33:12;;;;;;;;;7.67;6.67;;;;;;;;6366563;22;45340;-88
2022/09/03 10:35:44;;;;;;;;;6.00;6.00;;;;;;;;6366134;22;46119;-92
2022/09/03 10:38:09;;;;;;;;;5.67;4.67;;;;;;;;6366123;22;45340;-92
2022/09/03 10:40:35;;;;;;;;;3.00;2.00;;;;;;;;6342324;22;45364;-96
2022/09/03 10:43:06;;;;;;;;;2.67;2.67;;;;;;;;6378023;22;44632;-96
2022/09/03 10:45:36;;;;;;;;;4.33;3.67;;;;;;;;6353099;22;47373;-93
2022/09/03 10:48:11;;;;;;;;;3.00;2.67;;;;;;;;6341454;22;45573;-95
2022/09/03 10:50:48;;;;;;;;;4.00;3.67;;;;;;;;6366354;22;45437;-89
2022/09/03 10:53:32;;;;;;;;;3.00;3.00;;;;;;;;6334238;22;45807;-89
2022/09/03 10:55:57;;;;;;;;;3.00;2.00;;;;;;;;6336919;22;47450;-90
2022/09/03 10:58:26;;;;;;;;;3.00;3.00;;;;;;;;6336943;22;45507;-92
2022/09/03 11:00:52;;;;;;;;;3.33;3.00;;;;;;;;6365894;22;45296;-91
2022/09/03 11:03:26;;;;;;;;;4.00;4.00;;;;;;;;6337441;22;45353;-92
2022/09/03 11:06:02;;;;;;;;;3.33;2.00;;;;;;;;6365851;22;45376;-91
2022/09/03 11:08:34;;;;;;;;;0.00;0.00;;;;;;;;6336666;22;45275;-90
2022/09/03 11:11:09;;;;;;;;;2.33;2.33;;;;;;;;6338098;22;45335;-92
2022/09/03 11:13:41;;;;;;;;;3.00;3.00;;;;;;;;6338811;22;45277;-92
2022/09/03 11:16:25;;;;;;;;;1.67;1.67;;;;;;;;6339284;22;47249;-92
2022/09/03 11:18:53;;;;;;;;;5.00;3.00;;;;;;;;6366362;22;45466;-92
2022/09/03 11:21:20;;;;;;;;;2.67;2.00;;;;;;;;6339216;22;45458;-94
2022/09/03 11:23:49;;;;;;;;;2.00;2.00;;;;;;;;6341153;22;45251;-93
2022/09/03 11:26:26;;;;;;;;;3.00;2.00;;;;;;;;6342029;22;46479;-96
2022/09/03 11:29:11;;;;;;;;;3.00;2.33;;;;;;;;6338967;22;45448;-96
2022/09/03 11:31:43;;;;;;;;;2.67;2.67;;;;;;;;6345582;22;45940;-93
2022/09/03 11:34:15;;;;;;;;;3.00;3.00;;;;;;;;6343832;22;45578;-94
2022/09/03 11:36:40;;;;;;;;;3.00;2.00;;;;;;;;6339955;22;47102;-93
2022/09/03 11:39:41;;;;;;;;;2.00;2.00;;;;;;;;6339191;22;45724;-92
2022/09/03 11:42:23;;;;;;;;;2.00;2.00;;;;;;;;6239910;22;45431;-93
2022/09/03 11:44:50;;;;;;;;;3.00;3.00;;;;;;;;6239595;22;45285;-91
2022/09/03 11:47:20;;;;;;;;;3.33;2.00;;;;;;;;6241711;22;47255;-91
2022/09/03 11:49:50;;;;;;;;;2.33;1.00;;;;;;;;6213948;22;45617;-90
2022/09/03 11:52:28;;;;;;;;;2.33;2.33;;;;;;;;6246748;22;45547;-91
2022/09/03 11:54:54;;;;;;;;;1.00;1.00;;;;;;;;6219793;22;45452;-90
2022/09/03 11:57:24;;;;;;;;;3.33;1.00;;;;;;;;6249048;22;45742;-94
2022/09/03 11:59:50;;;;;;;;;1.00;1.00;;;;;;;;6249866;22;45721;-92
2022/09/03 12:02:30;;;;;;;;;1.67;1.67;;;;;;;;6253776;22;45384;-90
2022/09/03 12:05:20;;;;;;;;;3.00;1.00;;;;;;;;6252762;22;45106;-92
2022/09/03 12:07:59;;;;;;;;;1.00;1.00;;;;;;;;6241842;22;46919;-91
2022/09/03 12:10:37;;;;;;;;;1.00;1.00;;;;;;;;6225781;22;45629;-91
2022/09/03 12:13:02;;;;;;;;;2.00;2.00;;;;;;;;6223725;22;45271;-92
2022/09/03 12:15:36;;;;;;;;;2.33;2.33;;;;;;;;6253476;22;45453;-94
2022/09/03 12:18:19;;;;;;;;;4.33;4.33;;;;;;;;6344086;22;47486;-95
2022/09/03 12:21:08;;;;;;;;;2.33;2.33;;;;;;;;6369737;22;45395;-93
2022/09/03 12:23:41;;;;;;;;;5.50;4.50;;;;;;;;6242362;22;45312;-90
2022/09/03 12:26:13;;;;;;;;;3.00;3.00;;;;;;;;6214946;22;45443;-91
2022/09/03 12:28:40;;;;;;;;;3.00;2.00;;;;;;;;6240263;22;45505;-92
2022/09/03 12:31:20;;;;;;;;;0.00;0.00;;;;;;;;6240089;22;45610;-92
2022/09/03 12:33:50;;;;;;;;;3.00;1.33;;;;;;;;6240661;22;45292;-92
2022/09/03 12:36:16;;;;;;;;;1.00;1.00;;;;;;;;6214468;22;46254;-93
2022/09/03 12:38:41;;;;;;;;;3.00;1.67;;;;;;;;6213289;22;47161;-93
2022/09/03 12:41:18;;;;;;;;;2.00;0.00;;;;;;;;6240442;22;45344;-94
2022/09/03 12:43:50;;;;;;;;;0.00;0.00;;;;;;;;6214446;22;45336;-92
2022/09/03 12:46:15;;;;;;;;;1.67;1.67;;;;;;;;6239597;22;45431;-94
2022/09/03 12:48:46;;;;;;;;;1.00;1.00;;;;;;;;6214774;22;47441;-94
2022/09/03 12:51:11;;;;;;;;;1.00;0.33;;;;;;;;6246712;22;45488;-93
2022/09/03 12:53:36;;;;;;;;;1.00;1.00;;;;;;;;6216837;22;45423;-92
2022/09/03 12:56:02;;;;;;;;;2.00;2.00;;;;;;;;6252548;22;45593;-93
2022/09/03 12:58:59;;;;;;;;;2.00;0.00;;;;;;;;6217453;22;47519;-94
2022/09/03 13:01:30;;;;;;;;;2.33;2.33;;;;;;;;6231679;22;45411;-92
2022/09/03 13:04:07;;;;;;;;;1.00;1.00;;;;;;;;6271384;22;45451;-92
2022/09/03 13:06:41;;;;;;;;;1.00;1.00;;;;;;;;6243500;22;45873;-91
2022/09/03 13:09:08;;;;;;;;;1.00;0.00;;;;;;;;6270768;22;45432;-93
2022/09/03 13:11:36;;;;;;;;;0.00;0.00;;;;;;;;6273496;22;45390;-92
2022/09/03 13:14:09;;;;;;;;;0.00;0.00;;;;;;;;6247561;22;45508;-94
2022/09/03 13:16:41;;;;;;;;;0.00;0.00;;;;;;;;6247768;22;44910;-94
2022/09/03 13:19:17;;;;;;;;;2.00;0.33;;;;;;;;6272749;22;45615;-94
2022/09/03 13:22:07;;;;;;;;;0.00;0.00;;;;;;;;6244909;22;45408;-93
2022/09/03 13:24:33;;;;;;;;;0.00;0.00;;;;;;;;6279940;22;45851;-94
2022/09/03 13:27:17;;;;;;;;;1.00;1.00;;;;;;;;6246168;22;45418;-94
2022/09/03 13:29:45;;;;;;;;;0.00;0.00;;;;;;;;6244884;22;47961;-94
2022/09/03 13:32:12;;;;;;;;;0.33;0.33;;;;;;;;6271931;22;45630;-93
2022/09/03 13:34:45;;;;;;;;;0.00;0.00;;;;;;;;6246006;22;45493;-94
2022/09/03 13:37:29;;;;;;;;;0.00;0.00;;;;;;;;6297603;22;45429;-93
2022/09/03 13:39:58;;;;;;;;;0.00;0.00;;;;;;;;6368562;22;45487;-92
2022/09/03 13:42:30;;;;;;;;;0.00;0.00;;;;;;;;6340623;22;45348;-93
2022/09/03 13:45:05;;;;;;;;;0.00;0.00;;;;;;;;6339721;22;45332;-93
2022/09/03 13:50:20;;;;;;;;;0.00;0.00;;;;;;;;6342369;22;45270;-94
2022/09/03 13:50:36;;;;;;;;;0.00;0.00;;;;;;;;6378801;22;45424;-94
2022/09/03 13:53:06;;;;;;;;;0.00;0.00;;;;;;;;6350851;22;45432;-93
2022/09/03 13:55:36;;;;;;;;;1.00;0.00;;;;;;;;6350734;22;45373;-94
2022/09/03 13:58:01;;;;;;;;;0.00;0.00;;;;;;;;6350464;22;45272;-94
2022/09/03 14:00:33;;;;;;;;;0.00;0.00;;;;;;;;6348814;22;46881;-93
2022/09/03 14:03:18;;;;;;;;;0.00;0.00;;;;;;;;6377581;22;45205;-93
2022/09/03 14:05:44;;;;;;;;;0.00;0.00;;;;;;;;6348331;22;45227;-93
2022/09/03 14:08:23;;;;;;;;;0.00;0.00;;;;;;;;6377038;22;45272;-92
2022/09/03 14:11:07;;;;;;;;;0.00;0.00;;;;;;;;6348741;22;46284;-92
2022/09/03 14:13:51;;;;;;;;;0.00;0.00;;;;;;;;6347056;22;45406;-92
2022/09/03 14:16:37;;;;;;;;;0.00;0.00;;;;;;;;6342640;22;45570;-92
2022/09/03 14:19:06;;;;;;;;;0.00;0.00;;;;;;;;6340634;22;45390;-93
2022/09/03 14:21:41;;;;;;;;;0.00;0.00;;;;;;;;6339080;22;47480;-93
2022/09/03 14:24:13;;;;;;;;;0.00;0.00;;;;;;;;6368489;22;45241;-93
2022/09/03 14:26:48;;;;;;;;;0.00;0.00;;;;;;;;6368582;22;45334;-92
2022/09/03 14:29:15;;;;;;;;;0.00;0.00;;;;;;;;6339620;22;45408;-94
2022/09/03 14:31:58;;;;;;;;;0.00;0.00;;;;;;;;6340096;22;48458;-92
2022/09/03 14:34:29;;;;;;;;;0.00;0.00;;;;;;;;6339863;22;45448;-93
2022/09/03 14:37:00;;;;;;;;;1.00;0.00;;;;;;;;6340526;22;45236;-93
2022/09/03 14:39:31;;;;;;;;;0.00;0.00;;;;;;;;6340263;22;45502;-91
2022/09/03 14:42:06;;;;;;;;;0.00;0.00;;;;;;;;6340599;22;48144;-93
2022/09/03 14:44:34;;;;;;;;;0.00;0.00;;;;;;;;6341077;22;45375;-94
2022/09/03 14:47:09;;;;;;;;;0.00;0.00;;;;;;;;6370206;22;45659;-91
2022/09/03 14:49:34;;;;;;;;;0.00;0.00;;;;;;;;6367692;22;45445;-91
2022/09/03 14:52:15;;;;;;;;;1.33;0.00;;;;;;;;6367707;22;45360;-88
2022/09/03 14:54:41;;;;;;;;;0.00;0.00;;;;;;;;6367186;22;45585;-87
2022/09/03 14:57:12;;;;;;;;;0.00;0.00;;;;;;;;6364967;22;45472;-92
2022/09/03 14:59:43;;;;;;;;;0.00;0.00;;;;;;;;6339678;22;45354;-93
2022/09/03 15:02:21;;;;;;;;;0.00;0.00;;;;;;;;6338142;22;47315;-87
2022/09/03 15:04:46;;;;;;;;;0.00;0.00;;;;;;;;6366630;22;45264;-87
2022/09/03 15:07:11;;;;;;;;;0.00;0.00;;;;;;;;6366027;22;45364;-87
2022/09/03 15:09:43;;;;;;;;;0.00;0.00;;;;;;;;6365157;22;45598;-86
2022/09/03 15:12:16;;;;;;;;;0.00;0.00;;;;;;;;6337315;22;46113;-86
2022/09/03 15:15:01;;;;;;;;;0.00;0.00;;;;;;;;6365478;22;45301;-87
2022/09/03 15:17:45;;;;;;;;;0.00;0.00;;;;;;;;6335675;22;45331;-87
2022/09/03 15:20:10;;;;;;;;;0.33;0.33;;;;;;;;6337087;22;45413;-87
2022/09/03 15:22:41;;;;;;;;;0.00;0.00;;;;;;;;6365439;22;46182;-87
2022/09/03 15:25:19;;;;;;;;;0.00;0.00;;;;;;;;6365001;22;45424;-87
2022/09/03 15:27:56;;;;;;;;;1.00;0.00;;;;;;;;6365730;22;45290;-88
2022/09/03 15:30:21;;;;;;;;;1.00;1.00;;;;;;;;6336636;22;45463;-87
2022/09/03 15:32:56;;;;;;;;;1.00;1.00;;;;;;;;6336782;22;46297;-87
2022/09/03 15:35:24;;;;;;;;;0.33;0.33;;;;;;;;6337153;22;45560;-87
2022/09/03 15:38:05;;;;;;;;;0.00;0.00;;;;;;;;6336680;22;45356;-87
2022/09/03 15:40:35;;;;;;;;;0.33;0.33;;;;;;;;6365482;22;45601;-87
2022/09/03 15:43:07;;;;;;;;;2.00;2.00;;;;;;;;6329909;22;48425;-87
2022/09/03 15:45:38;;;;;;;;;1.00;1.00;;;;;;;;6333526;22;45670;-88
2022/09/03 15:48:25;;;;;;;;;1.00;1.00;;;;;;;;6331247;22;45276;-88
2022/09/03 15:51:01;;;;;;;;;0.33;0.33;;;;;;;;6334027;22;45222;-87
2022/09/03 15:53:30;;;;;;;;;1.00;1.00;;;;;;;;6330553;22;47248;-87
2022/09/03 15:56:14;;;;;;;;;1.00;1.00;;;;;;;;6334404;22;45405;-88
2022/09/03 15:58:58;;;;;;;;;3.00;1.00;;;;;;;;6337930;22;45329;-88
2022/09/03 16:01:44;;;;;;;;;0.33;0.33;;;;;;;;6337510;22;45367;-87
2022/09/03 16:04:21;;;;;;;;;1.00;1.00;;;;;;;;6340455;22;46779;-86
2022/09/03 16:07:04;;;;;;;;;1.00;1.00;;;;;;;;6339426;22;45214;-87
2022/09/03 16:09:46;;;;;;;;;4.00;1.00;;;;;;;;6335612;22;45319;-87
2022/09/03 16:12:28;;;;;;;;;1.00;1.00;;;;;;;;6333980;22;45283;-88
2022/09/03 16:14:57;;;;;;;;;1.00;1.00;;;;;;;;6329731;22;47021;-88
2022/09/03 16:17:32;;;;;;;;;2.00;2.00;;;;;;;;6333786;22;45366;-88
2022/09/03 16:20:07;;;;;;;;;0.67;0.67;;;;;;;;6333537;22;45378;-87
2022/09/03 16:22:43;;;;;;;;;2.33;2.00;;;;;;;;6331400;22;45343;-87
2022/09/03 16:25:13;;;;;;;;;1.00;1.00;;;;;;;;6333177;22;45342;-88
2022/09/03 16:27:50;;;;;;;;;2.67;1.00;;;;;;;;6331939;22;45374;-87
2022/09/03 16:30:30;;;;;;;;;2.00;2.00;;;;;;;;6333579;22;45371;-88
2022/09/03 16:33:04;;;;;;;;;2.67;2.00;;;;;;;;6332758;22;45371;-87
2022/09/03 16:35:36;;;;;;;;;2.00;2.00;;;;;;;;6334575;22;45371;-88
2022/09/03 16:38:01;;;;;;;;;1.33;1.33;;;;;;;;6334645;22;45340;-90
2022/09/03 16:40:32;;;;;;;;;3.00;2.00;;;;;;;;6334872;22;45461;-90
2022/09/03 16:43:16;;;;;;;;;2.00;2.00;;;;;;;;6331534;22;45419;-89
2022/09/03 16:46:09;;;;;;;;;1.67;0.67;;;;;;;;6330891;22;47922;-88
2022/09/03 16:48:45;;;;;;;;;2.00;2.00;;;;;;;;6333921;22;45367;-88
2022/09/03 16:51:29;;;;;;;;;1.67;1.67;;;;;;;;6334405;22;45452;-88
2022/09/03 16:54:03;;;;;;;;;2.00;2.00;;;;;;;;6334339;22;45659;-89
2022/09/03 16:56:42;;;;;;;;;1.00;1.00;;;;;;;;6335088;22;45402;-88
2022/09/03 16:59:11;;;;;;;;;3.00;3.00;;;;;;;;6331423;22;45324;-89
2022/09/03 17:01:51;;;;;;;;;2.00;2.00;;;;;;;;6332239;22;45426;-88
2022/09/03 17:04:45;;;;;;;;;2.00;2.00;;;;;;;;6334884;22;45364;-89
2022/09/03 17:07:37;;;;;;;;;4.00;3.00;;;;;;;;6334607;22;45381;-89
2022/09/03 17:10:20;;;;;;;;;1.67;1.67;;;;;;;;6334302;22;45379;-89
2022/09/03 17:13:05;;;;;;;;;4.00;3.00;;;;;;;;6332588;22;45258;-88
2022/09/03 17:15:42;;;;;;;;;4.33;3.00;;;;;;;;6332793;22;45268;-88
2022/09/03 17:18:18;;;;;;;;;3.00;3.00;;;;;;;;6332452;22;47311;-89
2022/09/03 17:21:01;;;;;;;;;2.33;2.33;;;;;;;;6332883;22;45354;-89
2022/09/03 17:23:35;;;;;;;;;2.00;2.00;;;;;;;;6331803;22;45790;-89
2022/09/03 17:26:36;;;;;;;;;3.00;3.00;;;;;;;;6335584;22;45235;-89
2022/09/03 17:29:16;;;;;;;;;1.33;1.33;;;;;;;;6241182;22;47202;-89
2022/09/03 17:31:48;;;;;;;;;6.00;4.00;;;;;;;;6268470;22;45411;-89
2022/09/03 17:34:13;;;;;;;;;4.67;2.67;;;;;;;;6243504;22;45297;-91
2022/09/03 17:36:47;;;;;;;;;4.00;4.00;;;;;;;;6242277;22;45673;-90
2022/09/03 17:39:39;;;;;;;;;4.00;3.67;;;;;;;;6247429;22;48387;-91
2022/09/03 17:42:13;;;;;;;;;3.00;3.00;;;;;;;;6268537;22;45325;-89
2022/09/03 17:44:48;;;;;;;;;3.00;3.00;;;;;;;;6248102;22;45328;-89
2022/09/03 17:47:41;;;;;;;;;4.00;3.00;;;;;;;;6275199;22;45316;-89
2022/09/03 17:50:25;;;;;;;;;1.00;1.00;;;;;;;;6246700;22;47282;-89
2022/09/03 17:52:54;;;;;;;;;5.33;4.67;;;;;;;;6246269;22;45598;-90
2022/09/03 17:55:34;;;;;;;;;3.67;3.67;;;;;;;;6252605;22;45295;-89
2022/09/03 17:58:17;;;;;;;;;3.33;3.33;;;;;;;;6251582;22;45362;-89
2022/09/03 18:00:55;;;;;;;;;3.67;3.67;;;;;;;;6278334;22;46546;-89
2022/09/03 18:03:23;;;;;;;;;3.33;3.33;;;;;;;;6319549;22;45414;-88
2022/09/03 18:05:58;;;;;;;;;3.00;3.00;;;;;;;;6335875;22;45272;-89
2022/09/03 18:08:29;;;;;;;;;5.00;5.00;;;;;;;;6332164;22;45347;-87
2022/09/03 18:11:08;;;;;;;;;4.33;4.33;;;;;;;;6343521;22;46787;-88
2022/09/03 18:13:42;;;;;;;;;4.67;4.33;;;;;;;;6338873;22;45379;-87
2022/09/03 18:16:26;;;;;;;;;6.00;4.00;;;;;;;;6334504;22;45320;-88
2022/09/03 18:18:57;;;;;;;;;5.67;4.00;;;;;;;;6332734;22;45328;-88
2022/09/03 20:10:33;;;;;;;;;17.67;15.00;;;;;;;;6303329;22;45584;-90
2022/09/03 20:13:01;;;;;;;;;19.33;18.00;;;;;;;;6300899;22;45274;-90
2022/09/03 20:15:30;;;;;;;;;21.00;19.33;;;;;;;;6302930;22;45458;-89
2022/09/03 20:18:09;;;;;;;;;21.33;21.33;;;;;;;;6301272;22;45305;-90
2022/09/03 20:20:34;;;;;;;;;23.67;21.33;;;;;;;;6301267;22;45319;-91
